Time;durP1;ratioP1;P1;durP2;ratioP2;P2;SDS_P1;SDS_P2;PMS_P1;PMS_P2;Temp;Humidity;BMP_temperature;BMP_pressure;BME280_temperature;BME280_humidity;BME280_pressure;Samples;Min_cycle;Max_cycle;Signal;HPM_P1;HPM_P2
2022/01/28 00:02:50;;;;;;;;;;;;;;;8.41;67.75;102921.06;7365818;19;19934;-63
2022/01/28 00:05:21;;;;;;;;;;;;;;;8.42;67.94;102928.03;7362659;19;24873;-64
2022/01/28 00:07:48;;;;;;;;;;;;;;;8.42;68.08;102925.44;7359618;19;19927;-63
2022/01/28 00:10:13;;;;;;;;;;;;;;;8.42;67.74;102923.72;7360745;19;20695;-63
2022/01/28 00:12:54;;;;;;;;;;;;;;;8.43;67.98;102938.47;7352079;19;20017;-64
2022/01/28 00:15:28;;;;;;;;;;;;;;;8.43;68.05;102941.09;7362404;19;19914;-64
2022/01/28 00:39:33;;;;;;;;;;;;;;;8.45;67.79;102928.09;7365074;19;20270;-64
2022/01/28 00:41:59;;;;;;;;;;;;;;;8.45;68.14;102938.50;7361730;19;19922;-63
2022/01/28 00:44:24;;;;;;;;;;;;;;;8.44;67.79;102927.22;7362236;19;19911;-63
2022/01/28 00:46:50;;;;;;;;;;;;;;;8.44;67.81;102927.22;7358175;19;19963;-63
2022/01/28 00:49:15;;;;;;;;;;;;;;;8.42;67.68;102922.84;7363195;19;20028;-63
2022/01/28 00:51:40;;;;;;;;;;;;;;;8.40;67.69;102909.75;7358138;19;19982;-63
2022/01/28 00:54:05;;;;;;;;;;;;;;;8.37;67.75;102908.84;7361789;19;20613;-63
2022/01/28 00:56:31;;;;;;;;;;;;;;;8.36;67.73;102923.56;7365944;19;19959;-63
2022/01/28 00:58:56;;;;;;;;;;;;;;;8.34;67.77;102920.03;7357067;19;19919;-64
2022/01/28 01:01:21;;;;;;;;;;;;;;;8.33;68.03;102907.84;7360608;19;19954;-63
2022/01/28 01:03:47;;;;;;;;;;;;;;;8.31;68.13;102893.91;7361681;19;19919;-63
2022/01/28 01:06:12;;;;;;;;;;;;;;;8.32;68.34;102900.91;7368045;19;19911;-63
2022/01/28 01:08:37;;;;;;;;;;;;;;;8.30;68.04;102902.56;7371611;19;19949;-63
2022/01/28 01:11:03;;;;;;;;;;;;;;;8.30;68.29;102919.06;7365510;19;19960;-63
2022/01/28 01:13:28;;;;;;;;;;;;;;;8.27;67.87;102902.53;7361878;19;19918;-63
2022/01/28 01:15:58;;;;;;;;;;;;;;;8.26;68.01;102895.53;7363120;19;19949;-62
2022/01/28 01:18:30;;;;;;;;;;;;;;;8.25;67.92;102888.56;7358050;19;19931;-63
2022/01/28 01:23:31;;;;;;;;;;;;;;;8.25;68.10;102898.97;7362256;19;19929;-63
2022/01/28 01:28:34;;;;;;;;;;;;;;;8.23;68.30;102893.75;7354119;19;19945;-63
2022/01/28 01:31:01;;;;;;;;;;;;;;;8.23;68.49;102880.75;7353560;19;20328;-64
2022/01/28 01:33:29;;;;;;;;;;;;;;;8.23;68.41;102885.06;7360617;19;20436;-63
2022/01/28 01:35:54;;;;;;;;;;;;;;;8.22;68.14;102891.13;7363793;19;19921;-63
2022/01/28 01:38:25;;;;;;;;;;;;;;;8.23;68.16;102892.88;7354645;19;19970;-63
2022/01/28 01:40:54;;;;;;;;;;;;;;;8.22;67.99;102893.72;7357976;19;20328;-64
2022/01/28 01:46:00;;;;;;;;;;;;;;;8.24;68.44;102876.41;7358875;19;19932;-63
2022/01/28 01:54:05;;;;;;;;;;;;;;;8.19;68.15;102836.38;7358724;19;20014;-63
2022/01/28 01:56:31;;;;;;;;;;;;;;;8.24;68.07;102847.78;7363321;19;19915;-63
2022/01/28 01:58:57;;;;;;;;;;;;;;;8.25;68.36;102841.72;7361793;19;19915;-63
2022/01/28 02:01:22;;;;;;;;;;;;;;;8.25;68.42;102828.72;7358273;19;20367;-63
2022/01/28 02:03:47;;;;;;;;;;;;;;;8.25;68.65;102846.94;7360596;19;19923;-63
2022/01/28 02:06:13;;;;;;;;;;;;;;;8.24;68.40;102853.84;7359953;19;19911;-63
2022/01/28 02:08:39;;;;;;;;;;;;;;;8.26;68.64;102851.28;7362459;19;19931;-63
2022/01/28 02:11:04;;;;;;;;;;;;;;;8.28;68.54;102852.22;7363008;19;19999;-63
2022/01/28 02:13:30;;;;;;;;;;;;;;;8.31;68.38;102847.06;7368357;19;19933;-63
2022/01/28 02:15:56;;;;;;;;;;;;;;;8.32;68.50;102846.22;7360985;19;19922;-63
2022/01/28 02:18:22;;;;;;;;;;;;;;;8.33;68.67;102855.78;7363292;19;19918;-63
2022/01/28 02:20:52;;;;;;;;;;;;;;;8.33;68.51;102866.19;7363946;19;19922;-64
2022/01/28 02:23:18;;;;;;;;;;;;;;;8.35;68.61;102880.13;7368831;19;19974;-63
2022/01/28 02:25:45;;;;;;;;;;;;;;;8.38;68.61;102872.41;6777021;19;10000575;-63
2022/01/28 02:28:13;;;;;;;;;;;;;;;8.42;68.50;102865.56;1619311;19;10001921;-63
2022/01/28 02:30:38;;;;;;;;;;;;;;;8.44;68.92;102850.84;7365767;19;19956;-63
2022/01/28 02:33:13;;;;;;;;;;;;;;;8.38;68.54;102824.69;7365863;19;19915;-63
2022/01/28 02:35:40;;;;;;;;;;;;;;;8.50;68.34;102844.03;7365926;19;20332;-63
2022/01/28 02:38:07;;;;;;;;;;;;;;;8.51;68.49;102835.34;7357692;19;19964;-63
2022/01/28 02:40:32;;;;;;;;;;;;;;;8.51;68.58;102840.56;7365571;19;19911;-63
2022/01/28 02:43:03;;;;;;;;;;;;;;;8.51;68.67;102850.97;7370715;19;19941;-63
2022/01/28 02:45:34;;;;;;;;;;;;;;;8.52;68.46;102857.97;7369424;19;19960;-63
2022/01/28 02:48:06;;;;;;;;;;;;;;;8.52;68.64;102847.56;7378058;19;20275;-63
2022/01/28 02:50:40;;;;;;;;;;;;;;;8.54;68.50;102835.44;7375357;19;19994;-63
2022/01/28 02:53:09;;;;;;;;;;;;;;;8.54;68.65;102827.63;7371722;19;19922;-63
2022/01/28 02:55:38;;;;;;;;;;;;;;;8.56;68.34;102822.44;7369066;19;19953;-63
2022/01/28 02:58:26;;;;;;;;;;;;;;;8.57;68.34;102813.78;7357131;19;19930;-63
2022/01/28 03:00:50;;;;;;;;;;;;;;;8.56;68.23;102802.47;7365318;19;19933;-63
2022/01/28 03:03:18;;;;;;;;;;;;;;;8.55;68.12;102799.84;7364788;19;19923;-63
2022/01/28 03:05:44;;;;;;;;;;;;;;;8.51;68.07;102798.91;7362527;19;19915;-63
2022/01/28 03:08:10;;;;;;;;;;;;;;;8.47;68.16;102786.69;7368509;19;20747;-64
2022/01/28 03:10:48;;;;;;;;;;;;;;;8.43;68.29;102804.81;7363896;19;19927;-63
2022/01/28 03:13:20;;;;;;;;;;;;;;;8.37;68.08;102805.59;7365612;19;19915;-63
2022/01/28 03:15:52;;;;;;;;;;;;;;;8.32;67.71;102801.97;7356995;19;19923;-64
2022/01/28 03:18:22;;;;;;;;;;;;;;;8.27;67.93;102814.03;7365727;19;20373;-64
2022/01/28 03:23:19;;;;;;;;;;;;;;;8.15;67.77;102799.00;7359604;19;19915;-63
2022/01/28 03:25:46;;;;;;;;;;;;;;;8.10;67.76;102799.75;7366517;19;19914;-63
2022/01/28 03:28:12;;;;;;;;;;;;;;;8.03;68.34;102819.56;7365782;19;19935;-63
2022/01/28 03:30:38;;;;;;;;;;;;;;;7.97;68.15;102809.91;7368626;19;20332;-63
2022/01/28 03:33:03;;;;;;;;;;;;;;;7.93;67.75;102802.00;7370868;19;19928;-63
2022/01/28 03:35:29;;;;;;;;;;;;;;;7.86;67.80;102806.22;7370819;19;19930;-63
2022/01/28 03:38:02;;;;;;;;;;;;;;;7.79;68.35;102799.09;7370680;19;19926;-63
2022/01/28 03:40:28;;;;;;;;;;;;;;;7.72;67.99;102790.28;7367420;19;19935;-63
2022/01/28 03:42:53;;;;;;;;;;;;;;;7.68;68.22;102800.56;7368745;19;19918;-63
2022/01/28 03:45:18;;;;;;;;;;;;;;;7.64;68.15;102811.75;7368092;19;19928;-63
2022/01/28 03:47:44;;;;;;;;;;;;;;;7.59;68.54;102818.56;7363730;19;19926;-64
2022/01/28 03:50:09;;;;;;;;;;;;;;;7.52;68.11;102821.03;7369773;19;20649;-64
2022/01/28 03:52:34;;;;;;;;;;;;;;;7.48;68.19;102815.72;7368440;19;19925;-64
2022/01/28 03:55:00;;;;;;;;;;;;;;;7.43;68.60;102805.19;7369226;19;19954;-63
2022/01/28 03:57:25;;;;;;;;;;;;;;;7.40;68.49;102810.34;7368725;19;19948;-63
2022/01/28 03:59:50;;;;;;;;;;;;;;;7.38;68.42;102817.22;7366135;19;19922;-63
2022/01/28 04:02:20;;;;;;;;;;;;;;;7.37;68.75;102810.25;7366416;19;19923;-63
2022/01/28 04:12:43;;;;;;;;;;;;;;;7.49;69.16;102805.34;7367225;19;19947;-63
2022/01/28 04:18:06;;;;;;;;;;;;;;;7.58;69.25;102794.28;7262192;19;2004282;-63
2022/01/28 04:20:31;;;;;;;;;;;;;;;7.62;68.98;102790.03;7356915;19;19931;-63
2022/01/28 04:22:57;;;;;;;;;;;;;;;7.64;69.07;102773.63;7366503;19;20032;-63
2022/01/28 04:25:23;;;;;;;;;;;;;;;7.68;69.35;102780.66;7367249;19;19923;-63
2022/01/28 04:27:48;;;;;;;;;;;;;;;7.73;69.33;102783.34;7371253;19;19930;-63
2022/01/28 04:30:13;;;;;;;;;;;;;;;7.76;68.96;102779.13;7375835;19;19922;-63
2022/01/28 04:32:39;;;;;;;;;;;;;;;7.82;69.06;102791.38;7371745;19;19923;-63
2022/01/28 04:35:05;;;;;;;;;;;;;;;7.87;68.86;102789.75;7375570;19;19930;-63
2022/01/28 04:40:17;;;;;;;;;;;;;;;7.96;69.04;102766.53;7365975;19;19950;-63
2022/01/28 04:58:14;;;;;;;;;;;;;;;8.11;69.04;102754.66;7367069;19;20439;-63
2022/01/28 05:09:12;;;;;;;;;;;;;;;8.21;68.70;102751.41;7367448;19;20420;-64
2022/01/28 05:27:20;;;;;;;;;;;;;;;8.30;68.89;102717.75;7366519;19;19984;-63
2022/01/28 05:29:45;;;;;;;;;;;;;;;8.31;68.91;102724.72;7362495;19;19930;-63
2022/01/28 05:32:11;;;;;;;;;;;;;;;8.32;68.73;102716.06;7366873;19;19936;-63
2022/01/28 05:34:37;;;;;;;;;;;;;;;8.33;68.86;102725.63;7364073;19;19918;-63
2022/01/28 05:37:03;;;;;;;;;;;;;;;8.34;69.08;102727.38;7366477;19;19925;-64
2022/01/28 05:39:28;;;;;;;;;;;;;;;8.35;68.61;102731.72;7365318;19;19923;-64
2022/01/28 05:41:53;;;;;;;;;;;;;;;8.36;68.69;102725.69;7363805;19;20649;-63
2022/01/28 05:44:20;;;;;;;;;;;;;;;8.36;68.75;102730.91;7364453;19;19919;-63
2022/01/28 05:46:46;;;;;;;;;;;;;;;8.35;68.65;102729.13;7370627;19;20415;-63
2022/01/28 05:49:13;;;;;;;;;;;;;;;8.35;68.85;102729.13;7369424;19;19915;-63
2022/01/28 05:51:38;;;;;;;;;;;;;;;8.35;68.90;102729.13;7371245;19;19957;-64
2022/01/28 05:54:03;;;;;;;;;;;;;;;8.33;68.77;102721.31;7369345;19;19922;-64
2022/01/28 05:56:31;;;;;;;;;;;;;;;8.31;68.56;102711.69;7365065;19;19931;-63
2022/01/28 05:58:56;;;;;;;;;;;;;;;8.31;68.66;102706.47;7368906;19;19952;-63
2022/01/28 06:01:22;;;;;;;;;;;;;;;8.28;68.56;102707.31;7367671;19;19974;-63
2022/01/28 06:03:47;;;;;;;;;;;;;;;8.28;68.82;102711.66;7368414;19;19915;-64
2022/01/28 06:06:20;;;;;;;;;;;;;;;8.27;68.67;102704.69;7364836;19;19955;-63
2022/01/28 06:08:49;;;;;;;;;;;;;;;8.26;68.80;102708.13;7377765;19;19923;-62
2022/01/28 06:11:15;;;;;;;;;;;;;;;8.26;68.99;102702.91;7371149;19;19930;-63
2022/01/28 06:13:40;;;;;;;;;;;;;;;8.27;69.04;102704.69;7379032;19;19919;-63
2022/01/28 06:16:05;;;;;;;;;;;;;;;8.29;68.71;102708.19;7370406;19;19918;-63
2022/01/28 06:18:31;;;;;;;;;;;;;;;8.30;68.89;102708.22;7371060;19;19923;-63
2022/01/28 06:20:56;;;;;;;;;;;;;;;8.31;69.15;102699.59;7370483;19;19989;-63
2022/01/28 06:23:21;;;;;;;;;;;;;;;8.33;68.97;102699.59;7370274;19;19911;-64
2022/01/28 06:25:48;;;;;;;;;;;;;;;8.36;68.91;102691.88;7367309;19;21835;-64
2022/01/28 06:28:13;;;;;;;;;;;;;;;8.39;68.82;102688.47;7371769;19;19915;-64
2022/01/28 06:30:39;;;;;;;;;;;;;;;8.40;69.03;102680.66;7372369;19;20739;-64
2022/01/28 06:33:04;;;;;;;;;;;;;;;8.42;69.44;102668.56;7368715;19;19927;-64
2022/01/28 06:35:29;;;;;;;;;;;;;;;8.44;69.09;102672.06;7361380;19;19918;-64
2022/01/28 06:37:55;;;;;;;;;;;;;;;8.47;68.96;102671.25;1076928;19;10001280;-64
2022/01/28 06:40:20;;;;;;;;;;;;;;;8.48;69.27;102666.06;7364796;19;19936;-64
2022/01/28 06:42:45;;;;;;;;;;;;;;;8.51;69.19;102663.50;7368866;19;20396;-64
2022/01/28 06:45:11;;;;;;;;;;;;;;;8.53;69.32;102659.22;7370411;19;19926;-64
2022/01/28 06:47:36;;;;;;;;;;;;;;;8.53;68.99;102646.19;7366492;19;19925;-64
2022/01/28 06:50:04;;;;;;;;;;;;;;;8.55;69.05;102639.28;7370804;19;19926;-64
2022/01/28 06:52:30;;;;;;;;;;;;;;;8.57;69.18;102642.78;7371002;19;19941;-64
2022/01/28 06:54:55;;;;;;;;;;;;;;;8.59;69.21;102640.22;7375900;19;20713;-64
2022/01/28 06:57:20;;;;;;;;;;;;;;;8.60;69.17;102641.06;7379090;19;19914;-64
2022/01/28 06:59:45;;;;;;;;;;;;;;;8.61;69.54;102635.00;7375326;19;19941;-64
2022/01/28 07:02:11;;;;;;;;;;;;;;;8.63;69.50;102641.16;7379229;19;19940;-64
2022/01/28 07:04:36;;;;;;;;;;;;;;;8.64;69.42;102629.88;7372691;19;19930;-64
2022/01/28 07:07:01;;;;;;;;;;;;;;;8.66;69.40;102620.34;7371990;19;19907;-64
2022/01/28 07:09:27;;;;;;;;;;;;;;;8.68;69.79;102629.06;7360651;19;19918;-64
2022/01/28 07:11:53;;;;;;;;;;;;;;;8.71;69.90;102644.72;7359692;19;19914;-64
2022/01/28 07:14:18;;;;;;;;;;;;;;;8.73;69.51;102654.34;7358005;19;19922;-64
2022/01/28 07:16:43;;;;;;;;;;;;;;;8.75;69.60;102665.63;7367100;19;19922;-64
2022/01/28 07:19:09;;;;;;;;;;;;;;;8.78;69.40;102662.22;7367345;19;19923;-65
2022/01/28 07:21:34;;;;;;;;;;;;;;;8.80;69.42;102660.50;7363295;19;19914;-64
2022/01/28 07:24:00;;;;;;;;;;;;;;;8.83;69.36;102655.38;7369562;19;19948;-64
2022/01/28 07:26:25;;;;;;;;;;;;;;;8.87;69.63;102657.16;7368220;19;19935;-64
2022/01/28 07:28:52;;;;;;;;;;;;;;;8.90;69.66;102636.34;7361405;19;19919;-64
2022/01/28 07:31:18;;;;;;;;;;;;;;;8.92;69.73;102634.66;7367531;19;21575;-64
2022/01/28 07:33:44;;;;;;;;;;;;;;;8.95;69.85;102634.69;7365283;19;20276;-64
2022/01/28 07:36:09;;;;;;;;;;;;;;;8.98;69.61;102624.34;7355813;19;20362;-64
2022/01/28 07:38:35;;;;;;;;;;;;;;;9.01;69.80;102623.47;7366816;19;19918;-64
2022/01/28 07:41:01;;;;;;;;;;;;;;;9.03;69.86;102637.44;7369706;19;19921;-64
2022/01/28 07:43:26;;;;;;;;;;;;;;;9.05;69.64;102630.50;7373082;19;19919;-64
2022/01/28 07:45:51;;;;;;;;;;;;;;;9.07;69.59;102624.47;7375124;19;19982;-64
2022/01/28 07:48:17;;;;;;;;;;;;;;;9.10;69.78;102628.84;7370605;19;19923;-64
2022/01/28 07:50:42;;;;;;;;;;;;;;;9.12;69.82;102626.25;7365283;19;19918;-64
2022/01/28 07:53:09;;;;;;;;;;;;;;;9.16;70.19;102620.22;7367527;19;19941;-64
2022/01/28 07:55:34;;;;;;;;;;;;;;;9.17;69.93;102611.53;7357834;19;19949;-64
2022/01/28 07:58:00;;;;;;;;;;;;;;;9.19;69.97;102607.25;7359602;19;19918;-64
2022/01/28 08:00:27;;;;;;;;;;;;;;;9.20;70.30;102617.69;7366077;19;19923;-64
2022/01/28 08:02:52;;;;;;;;;;;;;;;9.22;70.24;102612.47;7364581;19;19914;-64
2022/01/28 08:05:17;;;;;;;;;;;;;;;9.23;70.24;102614.25;7365862;19;19953;-64
2022/01/28 08:07:44;;;;;;;;;;;;;;;9.25;70.39;102612.53;7350869;19;19928;-64
2022/01/28 08:10:10;;;;;;;;;;;;;;;9.26;70.49;102598.63;7362896;19;19930;-64
2022/01/28 08:12:45;;;;;;;;;;;;;;;9.26;70.42;102603.84;7361511;19;19937;-65
2022/01/28 08:15:10;;;;;;;;;;;;;;;9.26;70.18;102609.94;7358107;19;19915;-65
2022/01/28 08:17:36;;;;;;;;;;;;;;;9.27;70.16;102613.41;7368026;19;19918;-64
2022/01/28 08:20:01;;;;;;;;;;;;;;;9.26;70.25;102619.50;7349473;19;19910;-64
2022/01/28 08:22:26;;;;;;;;;;;;;;;9.26;70.59;102624.72;7367695;19;19994;-64
2022/01/28 08:24:51;;;;;;;;;;;;;;;9.26;70.72;102624.72;7363401;19;19919;-64
2022/01/28 08:27:17;;;;;;;;;;;;;;;9.28;70.53;102612.59;7366195;19;19950;-64
2022/01/28 08:29:42;;;;;;;;;;;;;;;9.28;70.62;102602.16;7368480;19;19953;-64
2022/01/28 08:32:19;;;;;;;;;;;;;;;9.29;70.69;102599.56;2383771;19;10002003;-64
2022/01/28 08:34:45;;;;;;;;;;;;;;;9.31;70.71;102602.19;6649641;19;10001153;-65
2022/01/28 08:37:10;;;;;;;;;;;;;;;9.32;70.50;102601.31;7363434;19;19975;-64
2022/01/28 08:39:35;;;;;;;;;;;;;;;9.34;70.82;102603.09;7371160;19;20351;-64
2022/01/28 08:42:01;;;;;;;;;;;;;;;9.34;70.63;102595.28;7362018;19;19915;-64
2022/01/28 08:44:27;;;;;;;;;;;;;;;9.35;70.84;102598.75;7363978;19;19924;-64
2022/01/28 08:46:52;;;;;;;;;;;;;;;9.37;70.82;102599.66;7361105;19;19918;-64
2022/01/28 08:49:17;;;;;;;;;;;;;;;9.37;70.99;102594.44;7372245;19;20642;-65
2022/01/28 08:51:43;;;;;;;;;;;;;;;9.39;71.26;102594.47;7361228;19;20015;-65
2022/01/28 08:54:08;;;;;;;;;;;;;;;9.41;70.97;102588.41;7361702;19;19940;-65
2022/01/28 08:56:33;;;;;;;;;;;;;;;9.43;71.29;102586.72;7363470;19;19927;-64
2022/01/28 08:58:59;;;;;;;;;;;;;;;9.45;71.25;102599.75;7357692;19;19921;-64
2022/01/28 09:01:24;;;;;;;;;;;;;;;9.46;71.40;102597.16;7355674;19;20261;-65
2022/01/28 09:03:51;;;;;;;;;;;;;;;9.48;70.96;102605.00;7358922;19;20362;-65
2022/01/28 09:06:17;;;;;;;;;;;;;;;9.48;70.97;102605.91;7365389;19;19923;-64
2022/01/28 09:08:43;;;;;;;;;;;;;;;9.50;71.53;102598.94;7361280;19;19914;-64
2022/01/28 09:13:46;;;;;;;;;;;;;;;9.53;71.77;102612.03;7364562;19;19989;-64
2022/01/28 09:16:12;;;;;;;;;;;;;;;9.56;71.40;102609.44;7349753;19;19918;-65
2022/01/28 09:18:37;;;;;;;;;;;;;;;9.58;71.97;102592.09;7358872;19;20257;-65
2022/01/28 09:21:02;;;;;;;;;;;;;;;9.62;71.94;102588.66;7363143;19;19932;-64
2022/01/28 09:23:27;;;;;;;;;;;;;;;9.68;71.85;102572.22;7356122;19;19919;-64
2022/01/28 09:25:53;;;;;;;;;;;;;;;9.72;71.92;102578.31;7361199;19;19919;-64
2022/01/28 09:28:18;;;;;;;;;;;;;;;9.77;72.39;102571.41;7357515;19;19935;-64
2022/01/28 09:30:43;;;;;;;;;;;;;;;9.81;72.16;102568.88;7360890;19;20654;-64
2022/01/28 09:33:09;;;;;;;;;;;;;;;9.85;71.99;102570.66;7364085;19;19915;-65
2022/01/28 09:35:34;;;;;;;;;;;;;;;9.90;72.06;102573.31;7360848;19;19926;-65
2022/01/28 09:38:00;;;;;;;;;;;;;;;9.95;72.31;102560.31;7362187;19;19923;-64
2022/01/28 09:40:25;;;;;;;;;;;;;;;10.00;72.18;102569.94;7357277;19;19978;-64
2022/01/28 09:42:53;;;;;;;;;;;;;;;10.03;72.09;102559.50;7364743;19;19922;-64
2022/01/28 09:45:21;;;;;;;;;;;;;;;10.07;72.40;102561.28;7352894;19;19922;-64
2022/01/28 09:47:46;;;;;;;;;;;;;;;10.11;72.42;102550.00;7366731;19;19933;-64
2022/01/28 09:50:12;;;;;;;;;;;;;;;10.16;72.16;102555.28;7363265;19;19918;-65
2022/01/28 09:52:37;;;;;;;;;;;;;;;10.20;72.55;102553.59;7365152;19;19915;-64
2022/01/28 09:55:03;;;;;;;;;;;;;;;10.22;72.45;102544.88;7366011;19;19915;-64
2022/01/28 09:57:28;;;;;;;;;;;;;;;10.28;72.33;102541.47;7359982;19;19941;-64
2022/01/28 09:59:54;;;;;;;;;;;;;;;10.32;72.72;102535.44;7362677;19;19919;-64
2022/01/28 10:02:19;;;;;;;;;;;;;;;10.36;72.88;102542.44;7359335;19;19926;-64
2022/01/28 10:04:45;;;;;;;;;;;;;;;10.43;72.64;102532.88;7363730;19;19957;-65
2022/01/28 10:07:10;;;;;;;;;;;;;;;10.49;72.77;102523.38;7360145;19;19930;-64
2022/01/28 10:09:36;;;;;;;;;;;;;;;10.58;72.95;102533.88;7357873;19;19951;-64
2022/01/28 10:12:12;;;;;;;;;;;;;;;10.68;73.32;102518.25;7353786;19;19931;-64
2022/01/28 10:14:58;;;;;;;;;;;;;;;10.78;73.32;102505.25;7359664;19;20682;-65
2022/01/28 10:17:23;;;;;;;;;;;;;;;10.87;73.11;102504.44;7372289;19;19940;-65
2022/01/28 10:19:49;;;;;;;;;;;;;;;10.93;72.95;102512.28;7363560;19;19922;-65
2022/01/28 10:22:18;;;;;;;;;;;;;;;11.03;72.71;102515.81;7356502;19;19999;-64
2022/01/28 10:24:43;;;;;;;;;;;;;;;11.12;73.05;102518.50;7363447;19;19951;-64
2022/01/28 10:27:09;;;;;;;;;;;;;;;11.18;73.13;102529.84;7365037;19;19945;-65
2022/01/28 10:29:42;;;;;;;;;;;;;;;11.26;72.74;102513.31;7356883;19;19964;-64
2022/01/28 10:32:08;;;;;;;;;;;;;;;11.35;72.76;102505.47;7367738;19;20341;-65
2022/01/28 10:34:40;;;;;;;;;;;;;;;11.42;73.24;102499.41;7367539;19;19918;-64
2022/01/28 10:37:17;;;;;;;;;;;;;;;11.50;73.04;102518.59;7369107;19;19945;-64
2022/01/28 10:40:00;;;;;;;;;;;;;;;11.57;72.90;102493.34;7366757;19;20712;-64
2022/01/28 10:42:37;;;;;;;;;;;;;;;11.63;72.49;102488.97;2225296;19;10020931;-65
2022/01/28 10:45:09;;;;;;;;;;;;;;;11.67;72.55;102489.88;6657935;19;10001297;-65
2022/01/28 10:47:44;;;;;;;;;;;;;;;11.72;72.34;102482.03;7366330;19;19919;-65
2022/01/28 10:50:23;;;;;;;;;;;;;;;11.75;72.36;102482.88;7370743;19;20324;-64
2022/01/28 10:53:07;;;;;;;;;;;;;;;11.80;72.65;102469.81;7363435;19;19923;-64
2022/01/28 10:55:35;;;;;;;;;;;;;;;11.84;72.20;102477.69;7371620;19;19926;-65
2022/01/28 10:58:05;;;;;;;;;;;;;;;11.87;72.13;102471.59;7369056;19;20003;-64
2022/01/28 11:00:32;;;;;;;;;;;;;;;11.93;72.17;102461.13;7368615;19;19927;-65
2022/01/28 11:02:58;;;;;;;;;;;;;;;11.98;72.37;102462.00;7368467;19;19952;-64
2022/01/28 11:05:25;;;;;;;;;;;;;;;12.04;72.25;102441.03;7372117;19;20423;-65
2022/01/28 11:07:51;;;;;;;;;;;;;;;12.08;72.10;102445.41;7375044;19;20320;-64
2022/01/28 11:10:16;;;;;;;;;;;;;;;12.14;72.42;102434.91;7368275;19;19993;-65
2022/01/28 11:12:41;;;;;;;;;;;;;;;12.19;71.99;102438.41;7364815;19;19922;-64
2022/01/28 11:15:07;;;;;;;;;;;;;;;12.25;72.09;102432.28;7368750;19;19982;-65
2022/01/28 11:17:32;;;;;;;;;;;;;;;12.31;72.21;102436.63;7363969;19;19919;-65
2022/01/28 11:19:59;;;;;;;;;;;;;;;12.37;72.10;102447.13;7366868;19;19921;-65
2022/01/28 11:22:53;;;;;;;;;;;;;;;12.44;72.01;102438.34;7365851;19;19930;-65
2022/01/28 11:25:30;;;;;;;;;;;;;;;12.54;72.28;102437.44;7257034;19;2004508;-64
2022/01/28 11:27:55;;;;;;;;;;;;;;;12.62;71.72;102437.41;7364017;19;19932;-65
2022/01/28 11:30:25;;;;;;;;;;;;;;;12.66;71.54;102445.25;7365906;19;19918;-65
2022/01/28 11:33:01;;;;;;;;;;;;;;;12.69;71.34;102455.75;7368241;19;19922;-64
2022/01/28 11:35:28;;;;;;;;;;;;;;;12.70;71.53;102451.38;7359321;19;19914;-65
2022/01/28 11:37:56;;;;;;;;;;;;;;;12.69;71.15;102450.50;7363671;19;20388;-65
2022/01/28 11:40:22;;;;;;;;;;;;;;;12.71;71.58;102442.63;7365468;19;20287;-64
2022/01/28 11:42:48;;;;;;;;;;;;;;;12.72;71.56;102442.66;7357893;19;19936;-65
2022/01/28 11:45:13;;;;;;;;;;;;;;;12.79;71.55;102447.84;7363890;19;19919;-65
2022/01/28 11:47:40;;;;;;;;;;;;;;;12.85;71.78;102450.44;7359298;19;19936;-65
2022/01/28 11:50:11;;;;;;;;;;;;;;;12.92;71.98;102446.91;7363816;19;19924;-65
2022/01/28 11:52:42;;;;;;;;;;;;;;;13.04;71.92;102446.00;7364621;19;20266;-65
2022/01/28 11:55:13;;;;;;;;;;;;;;;13.15;71.87;102444.19;7366837;19;19911;-65
2022/01/28 11:57:49;;;;;;;;;;;;;;;13.27;72.05;102438.03;7376399;19;19915;-65
2022/01/28 12:00:18;;;;;;;;;;;;;;;13.35;71.40;102455.47;7369619;19;19922;-65
2022/01/28 12:02:48;;;;;;;;;;;;;;;13.43;71.60;102444.91;7367619;19;19922;-65
2022/01/28 12:05:31;;;;;;;;;;;;;;;13.51;71.57;102437.88;7367211;19;19934;-65
2022/01/28 12:08:00;;;;;;;;;;;;;;;13.57;71.28;102437.81;7368236;19;19907;-65
2022/01/28 12:10:27;;;;;;;;;;;;;;;13.64;70.82;102442.16;7362300;19;19918;-65
2022/01/28 12:13:00;;;;;;;;;;;;;;;13.67;70.62;102436.00;7357894;19;19952;-64
2022/01/28 12:15:30;;;;;;;;;;;;;;;13.69;70.18;102432.50;7364170;19;19918;-65
2022/01/28 12:18:06;;;;;;;;;;;;;;;13.68;70.34;102441.22;7362380;19;19943;-64
2022/01/28 12:20:38;;;;;;;;;;;;;;;13.67;70.16;102444.75;7366002;19;19922;-65
2022/01/28 12:23:10;;;;;;;;;;;;;;;13.65;69.74;102441.25;7363239;19;20714;-65
2022/01/28 12:25:35;;;;;;;;;;;;;;;13.63;70.17;102437.75;7365130;19;19915;-65
2022/01/28 12:28:19;;;;;;;;;;;;;;;13.61;70.27;102436.03;7358770;19;19923;-64
2022/01/28 12:30:49;;;;;;;;;;;;;;;13.61;70.12;102434.28;7363978;19;19949;-64
2022/01/28 12:33:19;;;;;;;;;;;;;;;13.62;70.30;102441.28;7359357;19;20339;-64
2022/01/28 12:35:46;;;;;;;;;;;;;;;13.63;70.17;102439.50;7367577;19;19919;-65
2022/01/28 12:38:11;;;;;;;;;;;;;;;13.63;70.40;102436.88;7369261;19;19918;-65
2022/01/28 12:40:41;;;;;;;;;;;;;;;13.62;70.35;102433.41;7367953;19;19914;-65
2022/01/28 12:43:06;;;;;;;;;;;;;;;13.61;70.00;102421.16;7375037;19;20492;-65
2022/01/28 12:45:32;;;;;;;;;;;;;;;13.61;70.12;102415.91;7373767;19;19919;-65
2022/01/28 12:47:58;;;;;;;;;;;;;;;13.62;70.81;102415.03;7367643;19;19938;-65
2022/01/28 12:50:24;;;;;;;;;;;;;;;13.64;70.45;102417.66;7366596;19;20333;-64
2022/01/28 12:52:49;;;;;;;;;;;;;;;13.66;70.72;102403.63;7365333;19;19931;-65
2022/01/28 12:55:15;;;;;;;;;;;;;;;13.69;71.00;102400.97;7359186;19;20311;-65
2022/01/28 12:57:44;;;;;;;;;;;;;;;13.75;70.78;102400.06;7364324;19;19931;-64
2022/01/28 13:00:10;;;;;;;;;;;;;;;13.75;70.68;102395.69;7366192;19;19926;-64
2022/01/28 13:02:35;;;;;;;;;;;;;;;13.79;70.64;102385.13;7361675;19;19918;-64
2022/01/28 13:10:21;;;;;;;;;;;;;;;13.83;70.99;102365.84;1158954;19;10001863;-65
2022/01/28 13:12:47;;;;;;;;;;;;;;;13.85;71.08;102366.72;7364745;19;19927;-64
2022/01/28 13:15:13;;;;;;;;;;;;;;;13.86;70.63;102360.56;7361352;19;19918;-65
2022/01/28 13:17:40;;;;;;;;;;;;;;;13.90;71.00;102362.28;7361002;19;19919;-65
2022/01/28 13:20:09;;;;;;;;;;;;;;;13.93;70.81;102362.22;7358293;19;19923;-65
2022/01/28 13:22:35;;;;;;;;;;;;;;;13.94;70.85;102345.63;7363760;19;20378;-65
2022/01/28 13:25:00;;;;;;;;;;;;;;;13.97;70.84;102353.44;7361351;19;19915;-65
2022/01/28 13:27:42;;;;;;;;;;;;;;;14.00;70.97;102348.16;7364981;19;19923;-65
2022/01/28 13:30:13;;;;;;;;;;;;;;;14.02;70.95;102344.63;7366421;19;19927;-65
2022/01/28 13:32:41;;;;;;;;;;;;;;;14.04;70.84;102328.88;7366810;19;20692;-65
2022/01/28 13:35:27;;;;;;;;;;;;;;;14.06;70.89;102336.72;7367633;19;19915;-65
2022/01/28 13:37:58;;;;;;;;;;;;;;;14.03;70.36;102327.09;7365125;19;19918;-64
2022/01/28 13:40:24;;;;;;;;;;;;;;;14.02;70.65;102320.13;7362014;19;20443;-65
2022/01/28 13:43:09;;;;;;;;;;;;;;;13.99;70.32;102310.53;7362198;19;20274;-65
2022/01/28 13:46:05;;;;;;;;;;;;;;;13.99;70.46;102314.91;7359636;19;19943;-65
2022/01/28 13:48:34;;;;;;;;;;;;;;;13.99;70.75;102309.66;7261373;19;2004366;-65
2022/01/28 13:51:06;;;;;;;;;;;;;;;13.99;70.71;102299.16;7341455;19;20261;-65
2022/01/28 13:54:15;;;;;;;;;;;;;;;14.00;71.23;102295.63;7359218;19;20533;-64
2022/01/28 13:56:31;;;;;;;;;;;;;;;14.04;71.22;102276.34;7254346;19;2004707;-65
2022/01/28 13:58:56;;;;;;;;;;;;;;;14.11;71.50;102275.38;7360734;19;19911;-64
2022/01/28 14:01:23;;;;;;;;;;;;;;;14.19;71.53;102264.75;7363191;19;19926;-65
2022/01/28 14:03:56;;;;;;;;;;;;;;;14.28;71.67;102257.63;7358592;19;19961;-65
2022/01/28 14:06:27;;;;;;;;;;;;;;;14.37;71.44;102258.38;7354041;19;19926;-65
2022/01/28 14:08:55;;;;;;;;;;;;;;;14.46;71.01;102247.75;7363174;19;19951;-65
2022/01/28 14:11:20;;;;;;;;;;;;;;;14.55;71.52;102237.16;7367040;19;19931;-64
2022/01/28 14:14:02;;;;;;;;;;;;;;;14.68;71.50;102240.44;7372406;19;19918;-65
2022/01/28 14:16:28;;;;;;;;;;;;;;;14.83;71.16;102220.94;7373117;19;19915;-64
2022/01/28 14:18:53;;;;;;;;;;;;;;;14.97;70.85;102229.47;7363458;19;20002;-64
2022/01/28 14:21:18;;;;;;;;;;;;;;;15.08;70.37;102205.63;7355644;19;19927;-64
2022/01/28 14:23:45;;;;;;;;;;;;;;;15.17;70.04;102210.72;7377574;19;20272;-65
2022/01/28 14:26:10;;;;;;;;;;;;;;;15.23;69.29;102211.47;7368403;19;19923;-65